Latest Coastal Weather Observations for Devonport Airport

IDV60701

Issued at 9:03 am EST Friday 18 August 2017 (issued every 10 minutes, with the page automatically refreshed every 10 minutes)

About coastal observations | Map of coastal stations | Coastal observations for VIC | Marine services | Other Formats
Station Details ID: 091126 Name: DEVONPORT AIRPORT Lat: -41.17 Lon: 146.43 Height: 8.0 m
Data from the previous 72 hours. | See also: Recent months at Devonport Airport
Date/Time
EST
Temp
°C
Wind Pressure Rain since
9am
mm
Weather Cloud Vis
km
Sea
Height
m
Swell
Dir  Spd
kts
Gust
kts
hPa Trend Height
m
Period
s
Dir
18/09:00am 6.5 W 7 9 1002.1 - 1.4 - Cloudy 10 - - - -
18/08:30am 6.4 W 5 8 1001.6 - 1.4 - - 10 - - - -
18/08:00am 5.3 SW 4 7 1001.1 - 1.4 - - 10 - - - -
18/07:30am 4.0 SW 4 5 1000.5 - 1.4 - - 10 - - - -
18/07:00am 3.4 WSW 8 10 999.9 - 1.4 - - 10 - - - -
18/06:30am 3.3 WSW 7 8 999.6 - 1.4 - - 10 - - - -
18/06:00am 3.2 SW 5 6 999.2 - 1.4 - Partly cloudy 10 - - - -
18/05:30am 2.3 SW 5 6 998.8 - 1.4 - - 10 - - - -
18/05:00am 3.9 WSW 4 5 998.5 - 1.4 - - 10 - - - -
18/04:30am 4.6 WSW 6 7 998.2 - 1.4 - - 10 - - - -
18/04:00am 4.4 WSW 7 9 997.8 - 1.4 - - 10 - - - -
18/03:30am 3.3 WSW 7 8 997.6 - 1.4 - - 10 - - - -
18/03:00am 4.5 W 9 10 997.3 - 1.4 - Mostly clear 10 - - - -
18/02:30am 4.7 W 8 10 997.1 - 1.4 - - 10 - - - -
18/02:00am 5.1 WSW 7 8 997.3 - 1.4 - Partly cloudy 10 - - - -
18/01:30am 5.0 W 7 9 997.3 - 1.4 - Partly cloudy 10 - - - -
18/01:00am 4.6 W 6 7 997.6 - 1.4 - Cloudy 10 - - - -
18/12:30am 3.7 W 8 8 997.3 - 1.4 - Partly cloudy 10 - - - -
18/12:00am 4.4 W 5 6 997.2 - 1.4 - Partly cloudy 10 - - - -
 
Date/Time
EST
Temp
°C
Wind Pressure Rain since
9am
mm
Weather Cloud Vis
km
Sea
Height
m
Swell
Dir  Spd
kts
Gust
kts
hPa Trend Height
m
Period
s
Dir
17/11:30pm 4.2 W 3 4 997.1 - 1.4 - Partly cloudy 10 - - - -
17/11:00pm 5.8 WSW 4 6 997.4 - 1.4 - Partly cloudy 10 - - - -
17/10:30pm 5.5 WSW 4 5 997.3 - 1.4 - - 10 - - - -
17/10:00pm 5.8 SW 5 5 997.3 - 1.4 - - 10 - - - -
17/09:30pm 5.7 SW 5 6 997.2 - 1.4 - - 10 - - - -
17/09:00pm 6.0 WSW 6 8 996.9 - 1.4 - - 10 - - - -
17/08:30pm 6.2 W 7 9 996.7 - 1.4 - - 10 - - - -
17/08:00pm 6.6 W 9 11 996.7 - 1.4 - - 10 - - - -
17/07:30pm 7.9 W 14 17 996.6 - 1.4 - - 10 - - - -
17/07:00pm 6.7 W 8 11 995.9 - 1.4 - - 10 - - - -
17/06:30pm 6.2 W 7 9 995.8 - 1.4 - - 10 - - - -
17/06:00pm 6.9 W 7 10 995.5 - 1.4 - - 10 - - - -
17/05:30pm 7.8 W 7 10 995.1 - 1.4 - Partly cloudy 10 - - - -
17/05:00pm 8.2 WSW 9 11 994.6 - 1.4 - Partly cloudy 10 - - - -
17/04:30pm 8.4 W 12 18 994.7 - 1.4 - Partly cloudy 10 - - - -
17/04:00pm 9.0 WNW 13 18 994.6 - 0.4 - Partly cloudy 10 - - - -
17/03:30pm 9.0 WNW 14 19 994.2 - 0.4 - Partly cloudy 10 - - - -
17/03:00pm 9.2 WNW 17 19 994.1 - 0.4 Showers Cloudy 10 - - - -
17/02:37pm 8.7 WNW 20 30 993.9 - 0.0 - Partly cloudy 10 - - - -
17/02:30pm 9.5 WNW 17 23 993.9 - 0.0 - Partly cloudy 10 - - - -
17/02:00pm 9.6 WNW 19 24 993.6 - 0.0 - Partly cloudy 10 - - - -
17/01:30pm 10.3 WNW 22 28 993.4 - 0.0 - Partly cloudy 10 - - - -
17/01:00pm 11.0 WNW 22 29 993.4 - 0.0 - Partly cloudy 10 - - - -
17/12:30pm 10.3 WNW 21 27 993.8 - 0.0 - Partly cloudy 10 - - - -
17/12:00pm 10.5 WNW 25 31 993.8 - 0.0 - Cloudy 10 - - - -
17/11:30am 11.1 WNW 19 23 994.1 - 0.0 - - 10 - - - -
17/11:00am 11.0 WNW 19 23 994.3 - 0.0 - Partly cloudy 10 - - - -
17/10:30am 10.7 WNW 17 23 994.4 - 0.0 - - 10 - - - -
17/10:00am 10.5 WNW 18 23 994.3 - 0.0 - - 10 - - - -
17/09:30am 9.9 WNW 18 23 994.5 - 0.0 - - 10 - - - -
17/09:00am 9.5 W 19 25 994.4 - 4.8 - - 10 - - - -
17/08:30am 8.6 W 23 29 994.1 - 4.8 - Partly cloudy 10 - - - -
17/08:02am 8.1 W 27 37 993.9 - 4.8 - Partly cloudy 10 - - - -
17/08:00am 8.2 W 28 37 993.7 - 4.8 - Partly cloudy 10 - - - -
17/07:50am 8.2 W 23 35 993.8 - 4.8 - Partly cloudy 10 - - - -
17/07:30am 8.1 W 20 27 993.4 - 4.6 - Partly cloudy 10 - - - -
17/07:00am 8.2 WNW 24 30 993.3 - 4.6 - Partly cloudy 10 - - - -
17/06:30am 8.0 W 26 34 992.9 - 4.6 - Partly cloudy 10 - - - -
17/06:00am 8.4 W 22 27 993.2 - 4.4 - Cloudy 10 - - - -
17/05:34am 8.1 W 19 30 992.8 - 4.4 - Partly cloudy 10 - - - -
17/05:30am 8.0 W 17 23 993.2 - 4.4 - Partly cloudy 10 - - - -
17/05:08am 7.8 W 18 28 992.6 - 4.4 - Partly cloudy 10 - - - -
17/05:00am 8.3 WNW 24 33 992.8 - 4.4 - Partly cloudy 10 - - - -
17/04:56am 8.3 WNW 26 36 992.8 - 4.4 - Partly cloudy 10 - - - -
17/04:47am 8.2 W 25 36 992.9 - 4.4 - Partly cloudy 10 - - - -
17/04:30am 7.7 W 20 34 992.6 - 4.4 - Partly cloudy 10 - - - -
17/04:20am 7.4 W 15 27 993.0 - 4.4 - Partly cloudy 10 - - - -
17/04:00am 7.2 W 19 25 992.2 - 4.4 - Partly cloudy 10 - - - -
17/03:47am 7.7 W 31 41 992.0 - 4.4 - Partly cloudy 8 - - - -
17/03:37am 8.1 W 26 45 992.4 - 4.0 - Partly cloudy 10 - - - -
17/03:35am 8.5 W 23 45 992.6 - 4.0 - Partly cloudy 10 - - - -
17/03:30am 8.8 W 21 27 992.5 - 3.8 - Partly cloudy 10 - - - -
17/03:19am 8.6 W 20 30 992.6 - 3.6 - Partly cloudy 10 - - - -
17/03:00am 9.8 WNW 23 31 992.1 - 3.6 - - 10 - - - -
17/02:30am 9.6 WNW 20 29 991.6 - 3.6 - - 10 - - - -
17/02:08am 9.7 WNW 23 33 991.8 - 3.6 - Partly cloudy 10 - - - -
17/02:00am 9.9 WNW 25 33 991.9 - 3.6 - Partly cloudy 10 - - - -
17/01:54am 10.5 WNW 21 31 992.0 - 3.6 - Partly cloudy 10 - - - -
17/01:30am 10.6 WNW 23 29 992.4 - 3.6 - Partly cloudy 10 - - - -
17/01:19am 10.7 WNW 22 32 992.6 - 3.6 - Partly cloudy 10 - - - -
17/01:00am 10.9 WNW 24 31 992.4 - 3.6 - Partly cloudy 10 - - - -
17/12:53am 10.7 WNW 18 30 992.3 - 3.6 - Partly cloudy 10 - - - -
17/12:30am 10.5 WNW 15 19 992.5 - 3.6 - Partly cloudy 10 - - - -
17/12:00am 10.3 WNW 14 17 993.0 - 3.6 - Cloudy 10 - - - -
 
Date/Time
EST
Temp
°C
Wind Pressure Rain since
9am
mm
Weather Cloud Vis
km
Sea
Height
m
Swell
Dir  Spd
kts
Gust
kts
hPa Trend Height
m
Period
s
Dir
16/11:30pm 10.2 WNW 15 19 993.2 - 3.6 - Partly cloudy 10 - - - -
16/11:00pm 10.2 WNW 19 23 993.3 - 3.6 - Partly cloudy 10 - - - -
16/10:30pm 10.3 WNW 19 24 993.2 - 3.6 - Partly cloudy 10 - - - -
16/10:00pm 10.1 WNW 19 23 993.3 - 3.6 - - 10 - - - -
16/09:30pm 10.4 WNW 21 25 993.3 - 3.6 - Partly cloudy 10 - - - -
16/09:15pm 10.3 WNW 18 25 993.3 - 3.6 - Partly cloudy 10 - - - -
16/09:00pm 9.9 W 12 15 993.4 - 3.6 - Cloudy 10 - - - -
16/08:30pm 9.8 W 16 19 993.3 - 3.6 - Partly cloudy 10 - - - -
16/08:00pm 10.0 W 18 25 992.8 - 3.6 - Partly cloudy 10 - - - -
16/07:30pm 10.2 W 17 19 992.8 - 3.6 - Partly cloudy 10 - - - -
16/07:00pm 9.7 W 13 18 992.4 - 3.6 - Partly cloudy 10 - - - -
16/06:30pm 9.9 W 14 17 992.1 - 3.6 - Partly cloudy 10 - - - -
16/06:00pm 10.1 W 22 28 991.1 - 3.6 Showers Cloudy 10 - - - -
16/05:30pm 10.1 W 18 23 990.6 - 3.6 - Partly cloudy 10 - - - -
16/05:00pm 9.9 W 23 31 990.2 - 3.6 - Partly cloudy 10 - - - -
16/04:30pm 10.7 W 19 29 989.5 - 2.8 - Partly cloudy 10 - - - -
16/04:28pm 10.5 W 18 29 989.5 - 2.8 - Partly cloudy 10 - - - -
16/04:00pm 11.1 W 22 29 989.4 - 2.8 - Partly cloudy 10 - - - -
16/03:30pm 11.1 WNW 26 33 988.5 - 2.8 - Partly cloudy 10 - - - -
16/03:00pm 11.3 WNW 24 30 988.0 - 2.8 Rain Cloudy 10 - - - -
16/02:49pm 11.1 W 24 32 988.0 - 2.8 - Partly cloudy 10 - - - -
16/02:44pm 10.9 W 27 37 987.9 - 2.8 - Partly cloudy 8 - - - -
16/02:38pm 10.5 WNW 29 37 987.9 - 2.8 - Partly cloudy 6 - - - -
16/02:30pm 11.3 WNW 26 34 987.9 - 2.4 - Partly cloudy 10 - - - -
16/02:00pm 12.1 W 26 33 987.5 - 2.4 - Partly cloudy 10 - - - -
16/01:37pm 12.2 WNW 15 25 987.4 - 2.4 - Partly cloudy 10 - - - -
16/01:30pm 11.6 W 14 20 987.3 - 2.4 - Partly cloudy 10 - - - -
16/01:00pm 11.7 W 13 18 987.0 - 2.4 - Partly cloudy 10 - - - -
16/12:30pm 11.3 W 17 21 987.3 - 2.4 - Partly cloudy 10 - - - -
16/12:17pm 10.5 W 18 22 987.3 - 2.4 - Partly cloudy 10 - - - -
16/12:04pm 9.4 W 22 32 987.4 - 2.4 - Partly cloudy 4 - - - -
16/12:00pm 9.2 W 23 32 987.4 - 2.4 Rain Partly cloudy 4 - - - -
16/11:47am 10.2 W 19 29 987.6 - 0.6 - Partly cloudy 6 - - - -
16/11:45am 10.9 W 19 29 987.5 - 0.2 - Partly cloudy 9 - - - -
16/11:43am 11.3 W 20 27 987.4 - 0.0 - Partly cloudy 10 - - - -
16/11:30am 12.1 WNW 23 28 987.0 - 0.0 - Partly cloudy 10 - - - -
16/11:00am 11.5 WNW 19 25 986.9 - 0.0 - Partly cloudy 10 - - - -
16/10:30am 11.5 WNW 18 24 986.5 - 0.0 - Partly cloudy 10 - - - -
16/10:00am 10.9 WNW 17 20 986.5 - 0.0 - Partly cloudy 10 - - - -
16/09:30am 10.7 WNW 11 14 986.1 - 0.0 - Partly cloudy 10 - - - -
16/09:06am 9.5 W 11 15 985.8 - 0.0 - Partly cloudy 10 - - - -
16/09:00am 9.6 WSW 12 17 985.8 - 17.8 Showers Cloudy 8 - - - -
16/08:49am 10.0 WSW 11 16 985.9 - 17.2 - Partly cloudy 6 - - - -
16/08:44am 9.9 WSW 9 11 985.8 - 16.4 - Partly cloudy 10 - - - -
16/08:30am 9.8 WSW 9 12 985.8 - 16.2 - Partly cloudy 10 - - - -
16/08:22am 10.0 WSW 13 20 985.8 - 16.2 - Partly cloudy 10 - - - -
16/08:08am 10.8 WNW 15 21 985.5 - 16.2 - Partly cloudy 10 - - - -
16/08:00am 11.0 WNW 17 22 985.5 - 16.2 - Partly cloudy 10 - - - -
16/07:58am 11.0 WNW 16 22 985.5 - 16.2 - Partly cloudy 10 - - - -
16/07:30am 10.7 WNW 15 20 985.4 - 16.2 - Partly cloudy 9 - - - -
16/07:00am 10.6 WNW 15 18 985.1 - 16.2 - Partly cloudy 10 - - - -
16/06:30am 10.4 WNW 15 21 984.8 - 16.2 - Partly cloudy 10 - - - -
16/06:00am 10.8 WNW 16 21 985.3 - 16.0 Rain Cloudy 10 - - - -
16/05:30am 10.8 WNW 13 19 985.6 - 16.0 - Partly cloudy 10 - - - -
16/05:00am 10.8 WNW 15 19 985.5 - 16.0 - Partly cloudy 10 - - - -
16/04:30am 10.6 WNW 16 20 985.7 - 16.0 - Partly cloudy 10 - - - -
16/04:15am 9.3 W 9 14 985.8 - 16.0 - Partly cloudy 10 - - - -
16/04:00am 9.0 W 16 27 986.5 - 15.8 - Partly cloudy 5 - - - -
16/03:58am 9.2 WNW 16 27 986.6 - 15.6 - Partly cloudy 6 - - - -
16/03:53am 11.0 NNW 14 27 985.7 - 14.8 - Partly cloudy 9 - - - -
16/03:52am 10.9 NNW 12 21 985.7 - 14.8 - Partly cloudy 9 - - - -
16/03:30am 9.4 NNE 6 7 986.1 - 14.2 - Partly cloudy 10 - - - -
16/03:00am 9.2 NNE 7 10 987.1 - 14.2 Rain Cloudy 10 - - - -
16/02:30am 9.2 W 6 7 988.1 - 14.2 - Partly cloudy 10 - - - -
16/02:00am 9.6 SSW 7 9 988.8 - 11.2 - Partly cloudy 3 - - - -
16/01:39am 8.7 SSE 4 5 989.2 - 6.6 - Partly cloudy 6 - - - -
16/01:30am 8.3 SE 3 4 989.3 - 6.2 - Partly cloudy 9 - - - -
16/01:00am 8.5 CALM 0 3 989.9 - 6.2 - Partly cloudy 8 - - - -
16/12:47am 8.0 CALM 0 0 990.3 - 6.2 - Partly cloudy 7 - - - -
16/12:30am 7.3 CALM 0 0 990.5 - 6.2 - Partly cloudy 6 - - - -
16/12:25am 7.5 CALM 0 0 990.7 - 6.2 - Partly cloudy 6 - - - -
16/12:00am 9.2 WSW 3 5 990.6 - 6.2 - Mostly cloudy 7 - - - -
 
Date/Time
EST
Temp
°C
Wind Pressure Rain since
9am
mm
Weather Cloud Vis
km
Sea
Height
m
Swell
Dir  Spd
kts
Gust
kts
hPa Trend Height
m
Period
s
Dir
15/11:30pm 10.6 WNW 7 9 991.5 - 6.2 - - 10 - - - -
15/11:00pm 10.7 WNW 7 9 991.8 - 6.2 - - 10 - - - -
15/10:30pm 10.5 WNW 7 9 992.4 - 6.2 - - 10 - - - -
15/10:00pm 10.6 W 9 11 992.6 - 6.2 - - 10 - - - -
15/09:30pm 10.6 WNW 9 11 992.6 - 6.2 - - 10 - - - -
15/09:15pm 10.7 WNW 10 12 992.6 - 6.2 - - 10 - - - -
15/09:00pm 10.5 WNW 7 8 992.4 - 6.2 - Mostly cloudy 6 - - - -
15/08:48pm 10.2 W 7 8 992.6 - 6.2 - - 6 - - - -
15/08:30pm 10.9 W 10 11 992.6 - 6.2 - - 7 - - - -
15/08:00pm 11.5 WNW 11 15 992.5 - 6.2 - - 10 - - - -
15/07:30pm 12.4 WNW 14 19 992.6 - 6.2 - - 9 - - - -
15/07:00pm 12.5 NW 14 18 992.6 - 6.2 - - 8 - - - -
15/06:30pm 12.8 NW 17 21 992.7 - 6.2 - Partly cloudy 9 - - - -
15/06:10pm 12.9 NW 16 20 992.5 - 6.2 - Partly cloudy 9 - - - -
15/06:00pm 13.0 NW 16 22 992.4 - 6.2 Drizzle Cloudy 8 - - - -
15/05:30pm 13.1 NW 17 21 992.6 - 6.2 - Partly cloudy 8 - - - -
15/05:15pm 13.0 NW 16 20 992.6 - 6.2 - Partly cloudy 8 - - - -
15/05:05pm 13.0 NW 17 22 992.7 - 6.2 - Partly cloudy 8 - - - -
15/05:00pm 13.0 NW 16 20 992.6 - 6.2 - Partly cloudy 7 - - - -
15/04:30pm 13.1 NW 17 22 992.8 - 6.2 - Cloudy 9 - - - -
15/04:00pm 13.0 WNW 14 22 993.1 - 6.2 - Partly cloudy 9 - - - -
15/03:41pm 12.9 WNW 18 26 993.3 - 6.2 - Partly cloudy 10 - - - -
15/03:30pm 12.6 WNW 15 20 993.5 - 6.2 - Partly cloudy 6 - - - -
15/03:17pm 12.6 NW 14 20 993.5 - 6.0 - Cloudy 6 - - - -
15/03:16pm 12.6 NW 14 18 993.5 - 6.0 - Cloudy 7 - - - -
15/03:00pm 12.4 NW 11 14 993.9 - 5.8 Showers Cloudy 4 - - - -
15/02:36pm 12.3 NNW 10 13 994.5 - 5.8 - Cloudy 6 - - - -
15/02:30pm 12.3 NNW 10 13 994.6 - 5.8 - Cloudy 8 - - - -
15/02:00pm 12.1 N 8 10 995.2 - 5.4 - Cloudy 9 - - - -
15/01:51pm 12.1 N 10 13 995.4 - 5.4 - Cloudy 9 - - - -
15/01:30pm 11.7 NE 10 12 995.9 - 5.0 - Partly cloudy 6 - - - -
15/01:06pm 11.7 NE 14 17 996.5 - 2.4 - Partly cloudy 5 - - - -
15/01:00pm 11.7 NE 14 16 997.0 - 2.0 - Partly cloudy 5 - - - -
15/12:55pm 11.7 NE 14 17 997.0 - 1.8 - Partly cloudy 5 - - - -
15/12:35pm 11.4 NE 14 19 997.6 - 0.4 - Partly cloudy 6 - - - -
15/12:30pm 11.5 NE 14 19 997.8 - 0.2 - Partly cloudy 8 - - - -
15/12:00pm 11.5 ENE 13 19 998.7 - 0.2 Drizzle Cloudy 10 - - - -
15/11:30am 11.0 E 9 13 1000.0 - 0.2 - Cloudy 10 - - - -
15/11:00am 8.1 SSE 6 8 1001.6 - 0.0 - Cloudy 10 - - - -
15/10:30am 8.1 SSE 6 8 1002.3 - 0.0 - Cloudy 10 - - - -
15/10:00am 7.5 SSE 6 7 1003.4 - 0.0 - Cloudy 10 - - - -
15/09:30am 6.9 SSE 8 9 1004.0 - 0.0 - Cloudy 10 - - - -

Other Formats:

Comma delimited format used in spreadsheet applications
http://www.bom.gov.au/fwo/IDV60701/IDV60701.95960.axf

JavaScript Object Notation format (JSON) in row-major order
http://www.bom.gov.au/fwo/IDV60701/IDV60701.95960.json